Map

Track Data

SID SEASON NUMBER BASIN SUBBASIN NAME ISO_TIME NATURE LAT LON WMO_WIND WMO_PRES WMO_AGENCY TRACK_TYPE DIST2LAND LANDFALL IFLAG USA_AGENCY USA_ATCF_ID USA_LAT USA_LON USA_RECORD USA_STATUS USA_WIND USA_PRES USA_SSHS USA_R34_NE USA_R34_SE USA_R34_SW USA_R34_NW USA_R50_NE USA_R50_SE USA_R50_SW USA_R50_NW USA_R64_NE USA_R64_SE USA_R64_SW USA_R64_NW USA_POCI USA_ROCI USA_RMW USA_EYE TOKYO_LAT TOKYO_LON TOKYO_GRADE TOKYO_WIND TOKYO_PRES TOKYO_R50_DIR TOKYO_R50_LONG TOKYO_R50_SHORT TOKYO_R30_DIR TOKYO_R30_LONG TOKYO_R30_SHORT TOKYO_LAND CMA_LAT CMA_LON CMA_CAT CMA_WIND CMA_PRES HKO_LAT HKO_LON HKO_CAT HKO_WIND HKO_PRES NEWDELHI_LAT NEWDELHI_LON NEWDELHI_GRADE NEWDELHI_WIND NEWDELHI_PRES NEWDELHI_CI NEWDELHI_DP NEWDELHI_POCI REUNION_LAT REUNION_LON REUNION_TYPE REUNION_WIND REUNION_PRES REUNION_TNUM REUNION_CI REUNION_RMW REUNION_R34_NE REUNION_R34_SE REUNION_R34_SW REUNION_R34_NW REUNION_R50_NE REUNION_R50_SE REUNION_R50_SW REUNION_R50_NW REUNION_R64_NE REUNION_R64_SE REUNION_R64_SW REUNION_R64_NW BOM_LAT BOM_LON BOM_TYPE BOM_WIND BOM_PRES BOM_TNUM BOM_CI BOM_RMW BOM_R34_NE BOM_R34_SE BOM_R34_SW BOM_R34_NW BOM_R50_NE BOM_R50_SE BOM_R50_SW BOM_R50_NW BOM_R64_NE BOM_R64_SE BOM_R64_SW BOM_R64_NW BOM_ROCI BOM_POCI BOM_EYE BOM_POS_METHOD BOM_PRES_METHOD NADI_LAT NADI_LON NADI_CAT NADI_WIND NADI_PRES WELLINGTON_LAT WELLINGTON_LON WELLINGTON_WIND WELLINGTON_PRES DS824_LAT DS824_LON DS824_STAGE DS824_WIND DS824_PRES TD9636_LAT TD9636_LON TD9636_STAGE TD9636_WIND TD9636_PRES TD9635_LAT TD9635_LON TD9635_WIND TD9635_PRES TD9635_ROCI NEUMANN_LAT NEUMANN_LON NEUMANN_CLASS NEUMANN_WIND NEUMANN_PRES MLC_LAT MLC_LON MLC_CLASS MLC_WIND MLC_PRES USA_GUST BOM_GUST BOM_GUST_PER REUNION_GUST REUNION_GUST_PER USA_SEAHGT USA_SEARAD_NE USA_SEARAD_SE USA_SEARAD_SW USA_SEARAD_NW STORM_SPEED STORM_DIR
1902189N12129 1902 22 WP MM NOT_NAMED 1902-07-07 16:00:00 NR 11.8000 128.600 main 318 211 __________O___ -1 11.8000 128.600 7 34 277
1902189N12129 1902 22 WP MM NOT_NAMED 1902-07-07 18:00:00 NR 11.9280 127.458 main 211 34 __________P___ -1 11.9280 127.458 7 33 276
1902189N12129 1902 22 WP MM NOT_NAMED 1902-07-07 21:00:00 NR 12.1045 125.808 main 34 0 __________P___ -1 12.1045 125.808 7 31 276
1902189N12129 1902 22 WP MM NOT_NAMED 1902-07-08 00:00:00 NR 12.2543 124.327 main 10 0 __________P___ -1 12.2543 124.327 7 26 276
1902189N12129 1902 22 WP MM NOT_NAMED 1902-07-08 03:00:00 NR 12.3700 123.123 main 21 21 __________P___ -1 12.3700 123.123 7 23 276
1902189N12129 1902 22 WP MM NOT_NAMED 1902-07-08 04:00:00 NR 12.4000 122.800 main 48 48 __________O___ -1 12.4000 122.800 3 16 275
1902189N12129 1902 22 WP MM NOT_NAMED 1902-07-08 06:00:00 NR 12.4476 122.285 main 68 24 __________P___ -1 12.4476 122.285 3 12 276
1902189N12129 1902 22 WP MM NOT_NAMED 1902-07-08 09:00:00 NR 12.5033 121.771 main 24 0 __________P___ -1 12.5033 121.771 3 8 278
1902189N12129 1902 22 WP MM NOT_NAMED 1902-07-08 12:00:00 NR 12.5645 121.451 main 0 0 __________P___ -1 12.5645 121.451 3 6 285
1902189N12129 1902 22 WP MM NOT_NAMED 1902-07-08 15:00:00 NR 12.6575 121.194 main 0 0 __________P___ -1 12.6575 121.194 3 6 292
1902189N12129 1902 22 WP MM NOT_NAMED 1902-07-08 16:00:00 NR 12.7000 121.100 main 0 0 __________O___ -1 12.7000 121.100 4 8 293
1902189N12129 1902 22 WP MM NOT_NAMED 1902-07-08 18:00:00 NR 12.8209 120.803 main 0 0 __________P___ -1 12.8209 120.803 4 10 295
1902189N12129 1902 22 WP MM NOT_NAMED 1902-07-08 21:00:00 NR 13.0403 120.352 main 24 24 __________P___ -1 13.0403 120.352 4 10 298
1902189N12129 1902 22 WP MM NOT_NAMED 1902-07-09 00:00:00 NR 13.2831 119.898 main 44 44 __________P___ -1 13.2831 119.898 4 10 299
1902189N12129 1902 22 WP MM NOT_NAMED 1902-07-09 03:00:00 NR 13.5243 119.448 main 98 98 __________P___ -1 13.5243 119.448 4 10 299
1902189N12129 1902 22 WP MM NOT_NAMED 1902-07-09 04:00:00 NR 13.6000 119.300 main 110 110 __________O___ -1 13.6000 119.300 4 9 295
1902189N12129 1902 22 WP MM NOT_NAMED 1902-07-09 06:00:00 NR 13.7253 119.011 main 144 144 __________P___ -1 13.7253 119.011 4 9 293
1902189N12129 1902 22 WP MM NOT_NAMED 1902-07-09 09:00:00 NR 13.9006 118.583 main 190 190 __________P___ -1 13.9006 118.583 4 9 293
1902189N12129 1902 22 WP MM NOT_NAMED 1902-07-09 12:00:00 NR 14.0693 118.161 main 219 229 __________P___ -1 14.0693 118.161 4 9 293
1902189N12129 1902 22 WP MM NOT_NAMED 1902-07-09 15:00:00 NR 14.2407 117.740 main 267 264 __________P___ -1 14.2407 117.740 4 9 293
1902189N12129 1902 22 WP MM NOT_NAMED 1902-07-09 16:00:00 NR 14.3000 117.600 main 274 274 __________O___ -1 14.3000 117.600 4 9 294
1902189N12129 1902 22 WP MM NOT_NAMED 1902-07-09 18:00:00 NR 14.4302 117.306 main 301 297 __________P___ -1 14.4302 117.306 4 9 295
1902189N12129 1902 22 WP MM NOT_NAMED 1902-07-09 21:00:00 NR 14.6320 116.865 main 334 342 __________P___ -1 14.6320 116.865 4 9 296
1902189N12129 1902 22 WP MM NOT_NAMED 1902-07-10 00:00:00 NR 14.8358 116.435 main 378 374 __________P___ -1 14.8358 116.435 4 9 297
1902189N12129 1902 22 WP MM NOT_NAMED 1902-07-10 03:00:00 NR 15.0355 116.028 main 412 409 __________P___ -1 15.0355 116.028 4 9 297
1902189N12129 1902 22 WP MM NOT_NAMED 1902-07-10 04:00:00 NR 15.1000 115.900 main 419 419 __________O___ -1 15.1000 115.900 4 8 297
1902189N12129 1902 22 WP MM NOT_NAMED 1902-07-10 06:00:00 NR 15.2142 115.660 main 437 446 __________P___ -1 15.2142 115.660 4 7 297
1902189N12129 1902 22 WP MM NOT_NAMED 1902-07-10 09:00:00 NR 15.3793 115.326 main 475 475 __________P___ -1 15.3793 115.326 4 7 298
1902189N12129 1902 22 WP MM NOT_NAMED 1902-07-10 12:00:00 NR 15.5480 115.011 main 506 505 __________P___ -1 15.5480 115.011 4 7 300
1902189N12129 1902 22 WP MM NOT_NAMED 1902-07-10 15:00:00 NR 15.7327 114.703 main 536 535 __________P___ -1 15.7327 114.703 4 7 302
1902189N12129 1902 22 WP MM NOT_NAMED 1902-07-10 16:00:00 NR 15.8000 114.600 main 546 519 __________O___ -1 15.8000 114.600 4 8 305
1902189N12129 1902 22 WP MM NOT_NAMED 1902-07-10 18:00:00 NR 15.9521 114.383 main 519 480 __________P___ -1 15.9521 114.383 4 8 307
1902189N12129 1902 22 WP MM NOT_NAMED 1902-07-10 21:00:00 NR 16.1992 114.058 main 480 425 __________P___ -1 16.1992 114.058 4 8 309
1902189N12129 1902 22 WP MM NOT_NAMED 1902-07-11 00:00:00 NR 16.4581 113.733 main 425 386 __________P___ -1 16.4581 113.733 4 8 310
1902189N12129 1902 22 WP MM NOT_NAMED 1902-07-11 03:00:00 NR 16.7163 113.408 main 386 371 __________P___ -1 16.7163 113.408 4 8 309
1902189N12129 1902 22 WP MM NOT_NAMED 1902-07-11 04:00:00 NR 16.8000 113.300 main 371 340 __________O___ -1 16.8000 113.300 4 8 307
1902189N12129 1902 22 WP MM NOT_NAMED 1902-07-11 06:00:00 NR 16.9503 113.086 main 340 302 __________P___ -1 16.9503 113.086 4 8 306
1902189N12129 1902 22 WP MM NOT_NAMED 1902-07-11 09:00:00 NR 17.1695 112.764 main 302 254 __________P___ -1 17.1695 112.764 4 8 305
1902189N12129 1902 22 WP MM NOT_NAMED 1902-07-11 12:00:00 NR 17.3894 112.441 main 254 215 __________P___ -1 17.3894 112.441 4 8 306
1902189N12129 1902 22 WP MM NOT_NAMED 1902-07-11 15:00:00 NR 17.6194 112.111 main 215 200 __________P___ -1 17.6194 112.111 4 8 306
1902189N12129 1902 22 WP MM NOT_NAMED 1902-07-11 16:00:00 NR 17.7000 112.000 main 200 170 __________O___ -1 17.7000 112.000 4 8 307
1902189N12129 1902 22 WP MM NOT_NAMED 1902-07-11 18:00:00 NR 17.8666 111.767 main 170 123 __________P___ -1 17.8666 111.767 4 8 307
1902189N12129 1902 22 WP MM NOT_NAMED 1902-07-11 21:00:00 NR 18.1292 111.411 main 123 77 __________P___ -1 18.1292 111.411 4 9 309
1902189N12129 1902 22 WP MM NOT_NAMED 1902-07-12 00:00:00 NR 18.4067 111.056 main 77 23 __________P___ -1 18.4067 111.056 4 9 311
1902189N12129 1902 22 WP MM NOT_NAMED 1902-07-12 03:00:00 NR 18.6992 110.711 main 23 10 __________P___ -1 18.6992 110.711 4 9 312
1902189N12129 1902 22 WP MM NOT_NAMED 1902-07-12 04:00:00 NR 18.8000 110.600 main 10 0 __________O___ -1 18.8000 110.600 4 9 314
1902189N12129 1902 22 WP MM NOT_NAMED 1902-07-12 06:00:00 NR 18.9998 110.388 main 0 0 __________P___ -1 18.9998 110.388 4 9 316
1902189N12129 1902 22 WP MM NOT_NAMED 1902-07-12 09:00:00 NR 19.3122 110.083 main 0 0 __________P___ -1 19.3122 110.083 4 9 318
1902189N12129 1902 22 WP MM NOT_NAMED 1902-07-12 12:00:00 NR 19.6397 109.789 main 0 0 __________P___ -1 19.6397 109.789 4 9 320
1902189N12129 1902 22 WP MM NOT_NAMED 1902-07-12 15:00:00 NR 19.9824 109.497 main 11 11 __________P___ -1 19.9824 109.497 4 9 322
1902189N12129 1902 22 WP MM NOT_NAMED 1902-07-12 16:00:00 NR 20.1000 109.400 main 24 24 __________O___ -1 20.1000 109.400 4 9 322
1902189N12129 1902 22 WP MM NOT_NAMED 1902-07-12 18:00:00 NR 20.3400 109.204 main 54 63 __________P___ -1 20.3400 109.204 4 9 323
1902189N12129 1902 22 WP MM NOT_NAMED 1902-07-12 21:00:00 NR 20.7101 108.906 main 83 56 __________P___ -1 20.7101 108.906 4 9 323
1902189N12129 1902 22 WP MM NOT_NAMED 1902-07-13 00:00:00 NR 21.0887 108.605 main 56 10 __________P___ -1 21.0887 108.605 4 10 323
1902189N12129 1902 22 WP MM NOT_NAMED 1902-07-13 03:00:00 NR 21.4719 108.302 main 10 0 __________P___ -1 21.4719 108.302 4 10 324
1902189N12129 1902 22 WP MM NOT_NAMED 1902-07-13 04:00:00 NR 21.6000 108.200 main 0 __________O___ -1 21.6000 108.200 7 10 324

Digital Typhoon Data and Search

About IBTrACS Database

This database is a web-friendly format of International Best Track Archive for Climate Stewardship (IBTrACS), a global best track data archive curated by NOAA dating back to 1842.

Updated: 2021-11-26